createdAt,value
2023-01-15T06:18:02.033Z,989.83
2023-01-15T06:28:01.947Z,989.92
2023-01-15T06:38:01.861Z,989.93
2023-01-15T06:48:01.808Z,990.03
2023-01-15T06:58:01.934Z,989.98
2023-01-15T07:08:01.840Z,990.11
2023-01-15T07:18:02.061Z,989.87
2023-01-15T07:28:01.947Z,990.10
2023-01-15T07:38:01.839Z,990.22
2023-01-15T07:48:01.907Z,990.26
2023-01-15T07:58:01.963Z,990.24
2023-01-15T08:08:01.981Z,990.29
2023-01-15T08:18:01.917Z,990.24
2023-01-15T08:28:01.861Z,990.21
2023-01-15T08:38:02.698Z,990.22
2023-01-15T08:48:02.138Z,990.33
2023-01-15T08:58:02.011Z,990.23
2023-01-15T09:08:02.086Z,990.37
2023-01-15T09:18:02.131Z,990.42
2023-01-15T09:28:02.204Z,990.62
2023-01-15T09:38:02.044Z,990.70
2023-01-15T09:48:02.025Z,990.42
2023-01-15T09:58:02.112Z,990.52
2023-01-15T10:08:02.258Z,990.25
2023-01-15T10:18:02.007Z,990.33
2023-01-15T10:28:02.103Z,990.25
2023-01-15T10:38:02.249Z,990.36
2023-01-15T10:48:02.179Z,990.52
2023-01-15T10:58:10.353Z,990.51
2023-01-15T11:08:28.625Z,990.54
2023-01-15T11:18:02.078Z,990.55
2023-01-15T11:28:02.194Z,990.38
2023-01-15T11:38:02.212Z,990.36
2023-01-15T11:48:02.203Z,990.38
2023-01-15T11:58:02.125Z,990.09
2023-01-15T12:08:02.252Z,989.75
2023-01-15T12:18:02.244Z,989.90
2023-01-15T12:28:02.208Z,990.03
2023-01-15T12:38:02.306Z,989.66
2023-01-15T12:48:02.410Z,989.89
2023-01-15T12:58:02.363Z,989.82
2023-01-15T13:08:02.225Z,989.83
2023-01-15T13:18:02.299Z,989.95
2023-01-15T13:28:02.237Z,990.03
2023-01-15T13:38:02.286Z,989.67
2023-01-15T13:48:02.396Z,989.85
2023-01-15T13:58:02.329Z,989.93
2023-01-15T14:08:02.410Z,989.80
2023-01-15T14:18:02.306Z,989.99
2023-01-15T14:28:02.523Z,989.96
2023-01-15T14:38:02.504Z,990.15
2023-01-15T14:48:02.513Z,990.15
2023-01-15T14:58:02.520Z,990.15
2023-01-15T15:08:02.577Z,990.20
2023-01-15T15:18:02.550Z,990.32
2023-01-15T15:28:02.425Z,990.29
2023-01-15T15:38:02.572Z,990.34
2023-01-15T15:48:02.420Z,990.43
2023-01-15T15:58:02.488Z,990.25
2023-01-15T16:08:02.572Z,990.52
2023-01-15T16:18:02.430Z,990.59
2023-01-15T16:28:02.502Z,990.80
2023-01-15T16:38:02.541Z,990.94
2023-01-15T16:48:02.416Z,991.06
2023-01-15T16:58:02.608Z,991.18
2023-01-15T17:08:02.562Z,991.13
2023-01-15T17:18:02.505Z,991.13
2023-01-15T17:28:02.490Z,991.18
2023-01-15T17:38:02.549Z,991.29
2023-01-15T17:48:02.479Z,991.34
2023-01-15T17:58:02.595Z,991.39
2023-01-15T18:08:05.186Z,991.38
2023-01-15T18:18:02.494Z,991.38
2023-01-15T18:28:02.443Z,991.44
2023-01-15T18:38:02.642Z,991.72
2023-01-15T18:48:02.490Z,991.62
2023-01-15T18:58:02.647Z,991.79
2023-01-15T19:08:02.496Z,991.60
2023-01-15T19:18:02.699Z,991.74
